sensor_id;sensor_type;location;lat;lon;timestamp;pressure;altitude;pressure_sealevel;temperature;humidity
69630;BME280;56857;52.212;5.496;2022-10-31T00:00:57;102108.13;;;13.08;92.96
69630;BME280;56857;52.212;5.496;2022-10-31T00:03:23;102107.28;;;13.08;93.05
69630;BME280;56857;52.212;5.496;2022-10-31T00:05:49;102108.28;;;13.07;93.03
69630;BME280;56857;52.212;5.496;2022-10-31T00:08:16;102104.63;;;13.08;93.21
69630;BME280;56857;52.212;5.496;2022-10-31T00:10:43;102114.94;;;13.11;93.50
69630;BME280;56857;52.212;5.496;2022-10-31T00:13:09;102110.47;;;13.11;93.28
69630;BME280;56857;52.212;5.496;2022-10-31T00:15:39;102113.97;;;13.12;93.38
69630;BME280;56857;52.212;5.496;2022-10-31T00:18:06;102112.16;;;13.12;93.36
69630;BME280;56857;52.212;5.496;2022-10-31T00:20:31;102113.97;;;13.12;93.21
69630;BME280;56857;52.212;5.496;2022-10-31T00:22:58;102118.44;;;13.11;93.31
69630;BME280;56857;52.212;5.496;2022-10-31T00:25:24;102116.66;;;13.12;93.55
69630;BME280;56857;52.212;5.496;2022-10-31T00:27:50;102110.63;;;13.10;93.49
69630;BME280;56857;52.212;5.496;2022-10-31T00:30:15;102114.94;;;13.11;93.88
69630;BME280;56857;52.212;5.496;2022-10-31T00:32:41;102114.13;;;13.10;93.71
69630;BME280;56857;52.212;5.496;2022-10-31T00:35:06;102120.97;;;13.13;93.83
69630;BME280;56857;52.212;5.496;2022-10-31T00:37:32;102114.94;;;13.11;93.80
69630;BME280;56857;52.212;5.496;2022-10-31T00:39:57;102124.63;;;13.12;94.02
69630;BME280;56857;52.212;5.496;2022-10-31T00:42:23;102123.63;;;13.13;94.02
69630;BME280;56857;52.212;5.496;2022-10-31T00:44:48;102121.28;;;13.10;94.16
69630;BME280;56857;52.212;5.496;2022-10-31T00:47:13;102122.28;;;13.09;94.22
69630;BME280;56857;52.212;5.496;2022-10-31T00:49:39;102121.44;;;13.08;94.32
69630;BME280;56857;52.212;5.496;2022-10-31T00:52:04;102118.78;;;13.08;94.30
69630;BME280;56857;52.212;5.496;2022-10-31T00:54:30;102123.09;;;13.09;94.58
69630;BME280;56857;52.212;5.496;2022-10-31T00:56:55;102121.44;;;13.08;94.68
69630;BME280;56857;52.212;5.496;2022-10-31T00:59:20;102126.78;;;13.08;94.71
69630;BME280;56857;52.212;5.496;2022-10-31T01:01:46;102127.91;;;13.06;94.49
69630;BME280;56857;52.212;5.496;2022-10-31T01:04:11;102124.41;;;13.05;94.60
69630;BME280;56857;52.212;5.496;2022-10-31T01:06:36;102136.03;;;13.04;94.55
69630;BME280;56857;52.212;5.496;2022-10-31T01:09:01;102126.38;;;13.03;94.77
69630;BME280;56857;52.212;5.496;2022-10-31T01:11:27;102130.88;;;13.03;94.41
69630;BME280;56857;52.212;5.496;2022-10-31T01:13:53;102125.69;;;13.01;94.59
69630;BME280;56857;52.212;5.496;2022-10-31T01:16:22;102127.53;;;13.01;94.64
69630;BME280;56857;52.212;5.496;2022-10-31T01:18:48;102120.84;;;12.96;94.26
69630;BME280;56857;52.212;5.496;2022-10-31T01:21:31;102124.13;;;12.90;94.25
69630;BME280;56857;52.212;5.496;2022-10-31T01:23:56;102125.94;;;12.90;94.19
69630;BME280;56857;52.212;5.496;2022-10-31T01:26:26;102113.91;;;12.86;94.43
69630;BME280;56857;52.212;5.496;2022-10-31T01:29:01;102113.38;;;12.82;93.86
69630;BME280;56857;52.212;5.496;2022-10-31T01:31:29;102111.03;;;12.79;93.73
69630;BME280;56857;52.212;5.496;2022-10-31T01:33:55;102112.16;;;12.76;93.81
69630;BME280;56857;52.212;5.496;2022-10-31T01:36:27;102103.66;;;12.73;94.04
69630;BME280;56857;52.212;5.496;2022-10-31T01:38:56;102102.00;;;12.72;93.55
69630;BME280;56857;52.212;5.496;2022-10-31T01:41:25;102099.81;;;12.67;93.65
69630;BME280;56857;52.212;5.496;2022-10-31T01:46:51;102098.72;;;12.60;93.66
69630;BME280;56857;52.212;5.496;2022-10-31T01:52:03;102099.84;;;12.58;93.44
69630;BME280;56857;52.212;5.496;2022-10-31T01:54:32;102092.03;;;12.56;93.40
69630;BME280;56857;52.212;5.496;2022-10-31T01:57:00;102094.16;;;12.52;93.25
69630;BME280;56857;52.212;5.496;2022-10-31T01:59:30;102097.28;;;12.48;93.10
69630;BME280;56857;52.212;5.496;2022-10-31T02:01:57;102094.91;;;12.45;93.17
69630;BME280;56857;52.212;5.496;2022-10-31T02:04:23;102085.56;;;12.41;93.13
69630;BME280;56857;52.212;5.496;2022-10-31T02:07:02;102094.00;;;12.36;92.86
69630;BME280;56857;52.212;5.496;2022-10-31T02:09:29;102094.44;;;12.32;92.85
69630;BME280;56857;52.212;5.496;2022-10-31T02:11:57;102098.22;;;12.29;92.61
69630;BME280;56857;52.212;5.496;2022-10-31T02:14:25;102094.09;;;12.26;92.80
69630;BME280;56857;52.212;5.496;2022-10-31T02:16:53;102086.41;;;12.23;92.50
69630;BME280;56857;52.212;5.496;2022-10-31T02:19:29;102088.66;;;12.18;92.34
69630;BME280;56857;52.212;5.496;2022-10-31T02:22:04;102082.81;;;12.15;92.54
69630;BME280;56857;52.212;5.496;2022-10-31T02:24:42;102090.09;;;12.13;92.41
69630;BME280;56857;52.212;5.496;2022-10-31T02:28:03;102092.38;;;12.08;92.13
69630;BME280;56857;52.212;5.496;2022-10-31T02:30:22;102090.16;;;12.03;92.30
69630;BME280;56857;52.212;5.496;2022-10-31T02:33:15;102088.63;;;12.00;92.43
69630;BME280;56857;52.212;5.496;2022-10-31T02:39:14;102096.88;;;11.97;91.88
69630;BME280;56857;52.212;5.496;2022-10-31T02:41:49;102088.25;;;11.95;91.73
69630;BME280;56857;52.212;5.496;2022-10-31T02:44:52;102094.81;;;11.91;91.57
69630;BME280;56857;52.212;5.496;2022-10-31T02:47:27;102090.78;;;11.87;91.56
69630;BME280;56857;52.212;5.496;2022-10-31T02:50:07;102092.88;;;11.83;91.54
69630;BME280;56857;52.212;5.496;2022-10-31T02:52:34;102094.69;;;11.83;91.72
69630;BME280;56857;52.212;5.496;2022-10-31T02:58:04;102090.09;;;11.75;91.49
69630;BME280;56857;52.212;5.496;2022-10-31T03:00:36;102093.03;;;11.72;91.54
69630;BME280;56857;52.212;5.496;2022-10-31T03:03:11;102088.72;;;11.71;91.69
69630;BME280;56857;52.212;5.496;2022-10-31T03:08:27;102092.13;;;11.64;91.62
69630;BME280;56857;52.212;5.496;2022-10-31T03:10:58;102099.22;;;11.63;91.61
69630;BME280;56857;52.212;5.496;2022-10-31T03:15:57;102098.03;;;11.57;91.14
69630;BME280;56857;52.212;5.496;2022-10-31T03:18:34;102099.13;;;11.55;91.14
69630;BME280;56857;52.212;5.496;2022-10-31T03:21:06;102098.44;;;11.53;91.24
69630;BME280;56857;52.212;5.496;2022-10-31T03:23:34;102093.28;;;11.51;91.43
69630;BME280;56857;52.212;5.496;2022-10-31T03:26:03;102102.22;;;11.50;91.48
69630;BME280;56857;52.212;5.496;2022-10-31T03:28:34;102102.38;;;11.49;91.26
69630;BME280;56857;52.212;5.496;2022-10-31T03:31:03;102099.00;;;11.47;91.59
69630;BME280;56857;52.212;5.496;2022-10-31T03:33:33;102101.81;;;11.45;91.23
69630;BME280;56857;52.212;5.496;2022-10-31T03:36:00;102104.59;;;11.44;91.29
69630;BME280;56857;52.212;5.496;2022-10-31T03:38:29;102109.38;;;11.40;91.04
69630;BME280;56857;52.212;5.496;2022-10-31T03:40:55;102106.19;;;11.36;91.06
69630;BME280;56857;52.212;5.496;2022-10-31T03:43:28;102103.69;;;11.35;91.38
69630;BME280;56857;52.212;5.496;2022-10-31T03:45:55;102100.16;;;11.34;91.26
69630;BME280;56857;52.212;5.496;2022-10-31T03:48:21;102105.47;;;11.34;91.28
69630;BME280;56857;52.212;5.496;2022-10-31T03:51:12;102096.84;;;11.32;91.30
69630;BME280;56857;52.212;5.496;2022-10-31T03:56:13;102101.31;;;11.32;91.18
69630;BME280;56857;52.212;5.496;2022-10-31T03:59:30;102098.78;;;11.30;91.24
69630;BME280;56857;52.212;5.496;2022-10-31T04:01:30;102099.06;;;11.27;91.12
69630;BME280;56857;52.212;5.496;2022-10-31T04:03:58;102105.50;;;11.25;91.25
69630;BME280;56857;52.212;5.496;2022-10-31T04:06:24;102101.16;;;11.24;91.35
69630;BME280;56857;52.212;5.496;2022-10-31T04:09:00;102103.13;;;11.22;91.18
69630;BME280;56857;52.212;5.496;2022-10-31T04:11:31;102098.81;;;11.21;91.38
69630;BME280;56857;52.212;5.496;2022-10-31T04:14:00;102106.94;;;11.19;91.24
69630;BME280;56857;52.212;5.496;2022-10-31T04:16:27;102104.41;;;11.18;91.31
69630;BME280;56857;52.212;5.496;2022-10-31T04:18:53;102104.56;;;11.16;91.26
69630;BME280;56857;52.212;5.496;2022-10-31T04:21:18;102099.38;;;11.14;91.37
69630;BME280;56857;52.212;5.496;2022-10-31T04:23:43;102106.34;;;11.16;91.18
69630;BME280;56857;52.212;5.496;2022-10-31T04:26:12;102105.38;;;11.17;91.31
69630;BME280;56857;52.212;5.496;2022-10-31T04:28:38;102101.03;;;11.16;91.35
69630;BME280;56857;52.212;5.496;2022-10-31T04:31:04;102100.19;;;11.15;91.47
69630;BME280;56857;52.212;5.496;2022-10-31T04:33:30;102100.34;;;11.13;91.48
69630;BME280;56857;52.212;5.496;2022-10-31T04:35:55;102097.72;;;11.13;91.56
69630;BME280;56857;52.212;5.496;2022-10-31T04:38:20;102094.34;;;11.11;91.58
69630;BME280;56857;52.212;5.496;2022-10-31T04:40:46;102094.50;;;11.10;91.45
69630;BME280;56857;52.212;5.496;2022-10-31T04:43:11;102092.81;;;11.09;91.36
69630;BME280;56857;52.212;5.496;2022-10-31T04:45:37;102092.97;;;11.07;91.50
69630;BME280;56857;52.212;5.496;2022-10-31T04:48:03;102089.59;;;11.05;91.43
69630;BME280;56857;52.212;5.496;2022-10-31T04:50:28;102081.81;;;11.04;91.38
69630;BME280;56857;52.212;5.496;2022-10-31T04:52:53;102087.94;;;11.04;91.60
69630;BME280;56857;52.212;5.496;2022-10-31T04:55:19;102091.28;;;11.06;91.69
69630;BME280;56857;52.212;5.496;2022-10-31T04:57:46;102089.31;;;11.08;91.72
69630;BME280;56857;52.212;5.496;2022-10-31T05:00:14;102088.50;;;11.08;92.17
69630;BME280;56857;52.212;5.496;2022-10-31T05:02:44;102083.03;;;11.09;92.05
69630;BME280;56857;52.212;5.496;2022-10-31T05:05:12;102084.84;;;11.09;91.97
69630;BME280;56857;52.212;5.496;2022-10-31T05:07:42;102087.66;;;11.07;92.01
69630;BME280;56857;52.212;5.496;2022-10-31T05:10:11;102080.81;;;11.05;92.01
69630;BME280;56857;52.212;5.496;2022-10-31T05:12:37;102080.09;;;11.03;92.03
69630;BME280;56857;52.212;5.496;2022-10-31T05:15:03;102079.44;;;11.01;91.90
69630;BME280;56857;52.212;5.496;2022-10-31T05:17:28;102076.06;;;10.99;91.89
69630;BME280;56857;52.212;5.496;2022-10-31T05:19:55;102078.88;;;10.97;91.86
69630;BME280;56857;52.212;5.496;2022-10-31T05:22:20;102077.19;;;10.96;91.76
69630;BME280;56857;52.212;5.496;2022-10-31T05:24:45;102083.47;;;10.95;91.69
69630;BME280;56857;52.212;5.496;2022-10-31T05:27:11;102073.69;;;10.96;91.77
69630;BME280;56857;52.212;5.496;2022-10-31T05:29:36;102073.69;;;10.96;91.57
69630;BME280;56857;52.212;5.496;2022-10-31T05:32:01;102072.03;;;10.95;91.52
69630;BME280;56857;52.212;5.496;2022-10-31T05:34:27;102073.84;;;10.94;91.69
69630;BME280;56857;52.212;5.496;2022-10-31T05:36:52;102079.16;;;10.94;91.39
69630;BME280;56857;52.212;5.496;2022-10-31T05:39:17;102068.69;;;10.93;91.42
69630;BME280;56857;52.212;5.496;2022-10-31T05:41:43;102072.16;;;10.93;91.58
69630;BME280;56857;52.212;5.496;2022-10-31T05:44:08;102067.84;;;10.92;91.64
69630;BME280;56857;52.212;5.496;2022-10-31T05:46:33;102070.50;;;10.92;91.73
69630;BME280;56857;52.212;5.496;2022-10-31T05:48:58;102067.00;;;10.92;91.73
69630;BME280;56857;52.212;5.496;2022-10-31T05:51:24;102071.50;;;10.91;91.65
69630;BME280;56857;52.212;5.496;2022-10-31T05:53:49;102064.47;;;10.90;91.48
69630;BME280;56857;52.212;5.496;2022-10-31T05:56:14;102064.75;;;10.87;91.28
69630;BME280;56857;52.212;5.496;2022-10-31T05:58:40;102058.78;;;10.85;91.36
69630;BME280;56857;52.212;5.496;2022-10-31T06:01:05;102058.91;;;10.83;91.52
69630;BME280;56857;52.212;5.496;2022-10-31T06:03:30;102049.41;;;10.81;91.33
69630;BME280;56857;52.212;5.496;2022-10-31T06:05:56;102052.06;;;10.81;91.36
69630;BME280;56857;52.212;5.496;2022-10-31T06:08:21;102062.97;;;10.78;91.45
69630;BME280;56857;52.212;5.496;2022-10-31T06:10:47;102055.97;;;10.77;91.29
69630;BME280;56857;52.212;5.496;2022-10-31T06:13:12;102056.97;;;10.76;91.25
69630;BME280;56857;52.212;5.496;2022-10-31T06:15:37;102064.09;;;10.75;91.30
69630;BME280;56857;52.212;5.496;2022-10-31T06:18:04;102056.16;;;10.75;91.41
69630;BME280;56857;52.212;5.496;2022-10-31T06:20:31;102054.31;;;10.76;91.58
69630;BME280;56857;52.212;5.496;2022-10-31T06:22:56;102055.28;;;10.75;91.55
69630;BME280;56857;52.212;5.496;2022-10-31T06:25:22;102055.28;;;10.75;91.67
69630;BME280;56857;52.212;5.496;2022-10-31T06:27:47;102057.94;;;10.75;91.80
69630;BME280;56857;52.212;5.496;2022-10-31T06:30:13;102054.44;;;10.74;91.74
69630;BME280;56857;52.212;5.496;2022-10-31T06:32:38;102061.44;;;10.75;91.66
69630;BME280;56857;52.212;5.496;2022-10-31T06:35:04;102059.63;;;10.76;91.52
69630;BME280;56857;52.212;5.496;2022-10-31T06:37:29;102071.06;;;10.76;91.37
69630;BME280;56857;52.212;5.496;2022-10-31T06:39:55;102079.16;;;10.75;91.58
69630;BME280;56857;52.212;5.496;2022-10-31T06:42:20;102071.06;;;10.76;91.67
69630;BME280;56857;52.212;5.496;2022-10-31T06:44:45;102065.75;;;10.76;91.79
69630;BME280;56857;52.212;5.496;2022-10-31T06:47:11;102068.25;;;10.78;91.69
69630;BME280;56857;52.212;5.496;2022-10-31T06:49:36;102073.56;;;10.78;91.69
69630;BME280;56857;52.212;5.496;2022-10-31T06:52:01;102076.09;;;10.79;91.72
69630;BME280;56857;52.212;5.496;2022-10-31T06:54:27;102067.84;;;10.82;91.94
69630;BME280;56857;52.212;5.496;2022-10-31T06:56:52;102078.31;;;10.84;91.90
69630;BME280;56857;52.212;5.496;2022-10-31T06:59:17;102072.88;;;10.85;91.81
69630;BME280;56857;52.212;5.496;2022-10-31T07:01:43;102076.22;;;10.87;91.99
69630;BME280;56857;52.212;5.496;2022-10-31T07:04:11;102077.91;;;10.88;92.18
69630;BME280;56857;52.212;5.496;2022-10-31T07:06:37;102083.06;;;10.90;92.13
69630;BME280;56857;52.212;5.496;2022-10-31T07:09:03;102089.19;;;10.90;92.29
69630;BME280;56857;52.212;5.496;2022-10-31T07:11:29;102090.06;;;10.91;92.25
69630;BME280;56857;52.212;5.496;2022-10-31T07:13:54;102075.94;;;10.90;92.20
69630;BME280;56857;52.212;5.496;2022-10-31T07:16:19;102084.75;;;10.91;91.96
69630;BME280;56857;52.212;5.496;2022-10-31T07:18:44;102083.75;;;10.92;91.99
69630;BME280;56857;52.212;5.496;2022-10-31T07:21:10;102083.59;;;10.94;91.95
69630;BME280;56857;52.212;5.496;2022-10-31T07:23:35;102086.84;;;10.97;92.09
69630;BME280;56857;52.212;5.496;2022-10-31T07:26:01;102084.75;;;11.01;92.17
69630;BME280;56857;52.212;5.496;2022-10-31T07:28:27;102079.97;;;11.04;92.33
69630;BME280;56857;52.212;5.496;2022-10-31T07:30:54;102077.16;;;11.06;92.16
69630;BME280;56857;52.212;5.496;2022-10-31T07:33:21;102085.00;;;11.07;92.25
69630;BME280;56857;52.212;5.496;2022-10-31T07:35:46;102080.25;;;11.11;92.40
69630;BME280;56857;52.212;5.496;2022-10-31T07:38:13;102083.59;;;11.13;92.67
69630;BME280;56857;52.212;5.496;2022-10-31T07:40:39;102087.63;;;11.17;92.82
69630;BME280;56857;52.212;5.496;2022-10-31T07:43:05;102083.88;;;11.20;93.05
69630;BME280;56857;52.212;5.496;2022-10-31T07:45:31;102087.91;;;11.24;93.05
69630;BME280;56857;52.212;5.496;2022-10-31T07:47:56;102087.47;;;11.28;93.40
69630;BME280;56857;52.212;5.496;2022-10-31T07:50:28;102097.66;;;11.33;93.66
69630;BME280;56857;52.212;5.496;2022-10-31T07:53:03;102100.72;;;11.38;93.53
69630;BME280;56857;52.212;5.496;2022-10-31T07:55:29;102091.50;;;11.42;94.03
69630;BME280;56857;52.212;5.496;2022-10-31T07:57:59;102093.56;;;11.48;93.91
69630;BME280;56857;52.212;5.496;2022-10-31T08:00:25;102087.81;;;11.53;94.03
69630;BME280;56857;52.212;5.496;2022-10-31T08:03:00;102099.69;;;11.58;94.29
69630;BME280;56857;52.212;5.496;2022-10-31T08:05:25;102088.47;;;11.65;94.56
69630;BME280;56857;52.212;5.496;2022-10-31T08:07:51;102090.56;;;11.71;94.58
69630;BME280;56857;52.212;5.496;2022-10-31T08:10:16;102096.81;;;11.79;94.41
69630;BME280;56857;52.212;5.496;2022-10-31T08:12:42;102095.41;;;11.85;94.17
69630;BME280;56857;52.212;5.496;2022-10-31T08:15:10;102101.13;;;11.90;94.28
69630;BME280;56857;52.212;5.496;2022-10-31T08:17:39;102107.66;;;11.96;94.01
69630;BME280;56857;52.212;5.496;2022-10-31T08:20:05;102099.13;;;12.02;94.04
69630;BME280;56857;52.212;5.496;2022-10-31T08:22:31;102106.50;;;12.08;94.07
69630;BME280;56857;52.212;5.496;2022-10-31T08:24:56;102107.56;;;12.15;93.98
69630;BME280;56857;52.212;5.496;2022-10-31T08:27:22;102108.50;;;12.24;94.05
69630;BME280;56857;52.212;5.496;2022-10-31T08:29:47;102101.47;;;12.33;94.01
69630;BME280;56857;52.212;5.496;2022-10-31T08:32:13;102107.53;;;12.43;94.17
69630;BME280;56857;52.212;5.496;2022-10-31T08:34:38;102102.81;;;12.55;93.96
69630;BME280;56857;52.212;5.496;2022-10-31T08:37:04;102099.81;;;12.67;94.18
69630;BME280;56857;52.212;5.496;2022-10-31T08:39:29;102099.72;;;12.77;94.12
69630;BME280;56857;52.212;5.496;2022-10-31T08:41:55;102095.75;;;12.81;94.13
69630;BME280;56857;52.212;5.496;2022-10-31T08:44:20;102090.13;;;12.84;94.53
69630;BME280;56857;52.212;5.496;2022-10-31T08:46:45;102094.16;;;12.88;94.99
69630;BME280;56857;52.212;5.496;2022-10-31T08:49:11;102090.19;;;12.92;95.06
69630;BME280;56857;52.212;5.496;2022-10-31T08:51:36;102094.38;;;12.95;95.07
69630;BME280;56857;52.212;5.496;2022-10-31T08:54:02;102098.72;;;12.96;95.46
69630;BME280;56857;52.212;5.496;2022-10-31T08:56:27;102089.75;;;12.97;95.82
69630;BME280;56857;52.212;5.496;2022-10-31T08:58:53;102085.75;;;13.01;95.89
69630;BME280;56857;52.212;5.496;2022-10-31T09:01:19;102083.31;;;13.08;95.67
69630;BME280;56857;52.212;5.496;2022-10-31T09:03:45;102077.22;;;13.15;95.78
69630;BME280;56857;52.212;5.496;2022-10-31T09:06:10;102080.25;;;13.20;95.65
69630;BME280;56857;52.212;5.496;2022-10-31T09:08:38;102075.16;;;13.27;95.68
69630;BME280;56857;52.212;5.496;2022-10-31T09:11:04;102072.72;;;13.34;95.69
69630;BME280;56857;52.212;5.496;2022-10-31T09:13:29;102072.44;;;13.45;95.72
69630;BME280;56857;52.212;5.496;2022-10-31T09:15:56;102076.00;;;13.54;95.65
69630;BME280;56857;52.212;5.496;2022-10-31T09:18:22;102073.38;;;13.62;95.53
69630;BME280;56857;52.212;5.496;2022-10-31T09:20:49;102063.44;;;13.72;95.88
69630;BME280;56857;52.212;5.496;2022-10-31T09:23:20;102064.75;;;13.76;95.78
69630;BME280;56857;52.212;5.496;2022-10-31T09:25:46;102053.97;;;13.86;95.73
69630;BME280;56857;52.212;5.496;2022-10-31T09:28:14;102051.69;;;13.99;95.72
69630;BME280;56857;52.212;5.496;2022-10-31T09:30:40;102043.38;;;14.10;95.96
69630;BME280;56857;52.212;5.496;2022-10-31T09:33:08;102049.91;;;14.16;95.77
69630;BME280;56857;52.212;5.496;2022-10-31T09:35:34;102038.59;;;14.22;95.83
69630;BME280;56857;52.212;5.496;2022-10-31T09:38:04;102039.41;;;14.31;95.78
69630;BME280;56857;52.212;5.496;2022-10-31T09:44:20;102032.66;;;14.61;95.98
69630;BME280;56857;52.212;5.496;2022-10-31T09:47:19;102021.63;;;14.80;95.64
69630;BME280;56857;52.212;5.496;2022-10-31T09:49:54;102022.94;;;14.93;94.78
69630;BME280;56857;52.212;5.496;2022-10-31T09:52:32;102030.97;;;15.01;94.52
69630;BME280;56857;52.212;5.496;2022-10-31T09:55:25;102034.28;;;15.03;94.15
69630;BME280;56857;52.212;5.496;2022-10-31T09:57:53;102030.09;;;15.09;94.23
69630;BME280;56857;52.212;5.496;2022-10-31T10:00:21;102025.72;;;15.16;93.84
69630;BME280;56857;52.212;5.496;2022-10-31T10:02:51;102025.25;;;15.20;93.64
69630;BME280;56857;52.212;5.496;2022-10-31T10:05:37;102026.91;;;15.21;93.33
69630;BME280;56857;52.212;5.496;2022-10-31T10:08:25;102026.75;;;15.23;93.06
69630;BME280;56857;52.212;5.496;2022-10-31T10:11:02;102021.06;;;15.26;92.49
69630;BME280;56857;52.212;5.496;2022-10-31T10:17:09;102023.69;;;15.34;91.75
69630;BME280;56857;52.212;5.496;2022-10-31T10:22:27;102017.84;;;15.30;91.47
69630;BME280;56857;52.212;5.496;2022-10-31T10:25:31;102009.00;;;15.30;90.88
69630;BME280;56857;52.212;5.496;2022-10-31T10:28:21;102007.69;;;15.26;90.90
69630;BME280;56857;52.212;5.496;2022-10-31T10:30:51;102005.03;;;15.26;90.61
69630;BME280;56857;52.212;5.496;2022-10-31T10:33:32;102003.53;;;15.23;90.80
69630;BME280;56857;52.212;5.496;2022-10-31T10:36:04;101995.50;;;15.23;90.64
69630;BME280;56857;52.212;5.496;2022-10-31T10:38:44;101978.81;;;15.21;90.88
69630;BME280;56857;52.212;5.496;2022-10-31T10:41:16;101979.63;;;15.22;90.77
69630;BME280;56857;52.212;5.496;2022-10-31T10:43:42;101976.81;;;15.23;91.16
69630;BME280;56857;52.212;5.496;2022-10-31T10:51:36;101979.13;;;15.26;90.73
69630;BME280;56857;52.212;5.496;2022-10-31T10:54:15;101968.94;;;15.30;90.76
69630;BME280;56857;52.212;5.496;2022-10-31T10:59:19;101960.69;;;15.48;90.35
69630;BME280;56857;52.212;5.496;2022-10-31T11:01:48;101942.75;;;15.57;90.16
69630;BME280;56857;52.212;5.496;2022-10-31T11:07:02;101928.97;;;15.76;90.17
69630;BME280;56857;52.212;5.496;2022-10-31T11:09:28;101924.88;;;15.88;89.56
69630;BME280;56857;52.212;5.496;2022-10-31T11:11:55;101920.50;;;15.95;89.66
69630;BME280;56857;52.212;5.496;2022-10-31T11:14:21;101907.06;;;16.04;89.39
69630;BME280;56857;52.212;5.496;2022-10-31T11:16:51;101899.44;;;16.15;89.49
69630;BME280;56857;52.212;5.496;2022-10-31T11:19:25;101892.91;;;16.18;88.89
69630;BME280;56857;52.212;5.496;2022-10-31T11:21:51;101874.09;;;16.26;88.66
69630;BME280;56857;52.212;5.496;2022-10-31T11:24:22;101869.69;;;16.33;88.51
69630;BME280;56857;52.212;5.496;2022-10-31T11:26:49;101876.34;;;16.37;88.59
69630;BME280;56857;52.212;5.496;2022-10-31T11:29:23;101867.47;;;16.37;88.54
69630;BME280;56857;52.212;5.496;2022-10-31T11:31:51;101873.09;;;16.42;88.39
69630;BME280;56857;52.212;5.496;2022-10-31T11:36:49;101882.34;;;16.39;87.58
69630;BME280;56857;52.212;5.496;2022-10-31T11:39:22;101883.59;;;16.29;87.37
69630;BME280;56857;52.212;5.496;2022-10-31T11:41:50;101883.84;;;16.19;86.55
69630;BME280;56857;52.212;5.496;2022-10-31T11:44:24;101869.56;;;16.12;87.38
69630;BME280;56857;52.212;5.496;2022-10-31T11:46:54;101873.34;;;16.17;87.39
69630;BME280;56857;52.212;5.496;2022-10-31T11:49:41;101866.31;;;16.16;87.25
69630;BME280;56857;52.212;5.496;2022-10-31T11:52:14;101864.31;;;16.18;87.27
69630;BME280;56857;52.212;5.496;2022-10-31T11:54:57;101870.19;;;16.14;87.13
69630;BME280;56857;52.212;5.496;2022-10-31T11:57:32;101863.19;;;16.13;87.22
69630;BME280;56857;52.212;5.496;2022-10-31T12:00:03;101860.34;;;16.14;86.63
69630;BME280;56857;52.212;5.496;2022-10-31T12:02:29;101846.59;;;16.17;86.99
69630;BME280;56857;52.212;5.496;2022-10-31T12:05:06;101836.81;;;16.25;86.42
69630;BME280;56857;52.212;5.496;2022-10-31T12:07:33;101819.69;;;16.34;86.67
69630;BME280;56857;52.212;5.496;2022-10-31T12:09:58;101814.59;;;16.39;85.98
69630;BME280;56857;52.212;5.496;2022-10-31T12:12:34;101809.91;;;16.41;86.13
69630;BME280;56857;52.212;5.496;2022-10-31T12:18:17;101791.72;;;16.36;85.58
69630;BME280;56857;52.212;5.496;2022-10-31T12:26:16;101789.66;;;16.09;86.52
69630;BME280;56857;52.212;5.496;2022-10-31T12:37:00;101766.97;;;16.19;87.23
69630;BME280;56857;52.212;5.496;2022-10-31T12:39:36;101754.25;;;16.21;87.14
69630;BME280;56857;52.212;5.496;2022-10-31T12:42:25;101748.91;;;16.21;87.46
69630;BME280;56857;52.212;5.496;2022-10-31T13:01:51;101703.97;;;16.47;86.80
69630;BME280;56857;52.212;5.496;2022-10-31T13:07:14;101698.22;;;16.50;86.78
69630;BME280;56857;52.212;5.496;2022-10-31T13:12:24;101673.78;;;16.53;86.63
69630;BME280;56857;52.212;5.496;2022-10-31T13:14:54;101683.28;;;16.55;86.52
69630;BME280;56857;52.212;5.496;2022-10-31T13:17:27;101679.56;;;16.56;86.59
69630;BME280;56857;52.212;5.496;2022-10-31T13:20:02;101669.69;;;16.57;86.72
69630;BME280;56857;52.212;5.496;2022-10-31T13:22:31;101669.53;;;16.58;86.75
69630;BME280;56857;52.212;5.496;2022-10-31T13:25:03;101668.66;;;16.58;86.84
69630;BME280;56857;52.212;5.496;2022-10-31T13:27:36;101655.47;;;16.56;86.94
69630;BME280;56857;52.212;5.496;2022-10-31T13:30:14;101642.28;;;16.55;87.41
69630;BME280;56857;52.212;5.496;2022-10-31T13:35:28;101622.25;;;16.51;87.75
69630;BME280;56857;52.212;5.496;2022-10-31T13:38:04;101619.97;;;16.48;87.87
69630;BME280;56857;52.212;5.496;2022-10-31T13:40:48;101628.19;;;16.46;88.02
69630;BME280;56857;52.212;5.496;2022-10-31T13:45:48;101621.81;;;16.47;88.39
69630;BME280;56857;52.212;5.496;2022-10-31T13:50:40;101606.66;;;16.54;88.35
69630;BME280;56857;52.212;5.496;2022-10-31T13:55:46;101594.19;;;16.61;88.43
69630;BME280;56857;52.212;5.496;2022-10-31T13:58:30;101589.91;;;16.67;88.56
69630;BME280;56857;52.212;5.496;2022-10-31T14:01:13;101596.53;;;16.71;88.43
69630;BME280;56857;52.212;5.496;2022-10-31T14:03:42;101586.28;;;16.75;88.37
69630;BME280;56857;52.212;5.496;2022-10-31T14:06:10;101582.78;;;16.74;88.67
69630;BME280;56857;52.212;5.496;2022-10-31T14:08:40;101572.88;;;16.75;88.68
69630;BME280;56857;52.212;5.496;2022-10-31T14:11:07;101575.41;;;16.76;88.97
69630;BME280;56857;52.212;5.496;2022-10-31T14:13:36;101571.72;;;16.77;88.99
69630;BME280;56857;52.212;5.496;2022-10-31T14:16:06;101568.19;;;16.77;89.40
69630;BME280;56857;52.212;5.496;2022-10-31T14:18:44;101562.44;;;16.80;89.18
69630;BME280;56857;52.212;5.496;2022-10-31T14:23:47;101542.44;;;16.76;89.09
69630;BME280;56857;52.212;5.496;2022-10-31T14:28:50;101541.91;;;16.65;89.86
69630;BME280;56857;52.212;5.496;2022-10-31T14:31:29;101534.88;;;16.64;90.01
69630;BME280;56857;52.212;5.496;2022-10-31T14:33:55;101528.28;;;16.60;90.31
69630;BME280;56857;52.212;5.496;2022-10-31T14:36:31;101520.44;;;16.59;90.04
69630;BME280;56857;52.212;5.496;2022-10-31T14:39:08;101519.53;;;16.52;89.65